Wetterdaten: Woche 03.12.18 - 09.12.18 (KW49)
Datum Zeit Temp. 2m rel. Feuchte Luftdruck Regen Wind Richtung Sonne ET UV-Index Solar Taupunkt Ben
03.12.2018 00:00 12,7 C 95 % 1001,2 hPa 2,6 mm 10,4 km/h (2 Bft) N-NW 0,00 h 0,0 mm 0,0 UV-I 0 W/m 11,9 C 26,8 km/h (4 Bft)
03.12.2018 01:00 12,0 C 95 % 1001,1 hPa 0,4 mm 6,2 km/h (2 Bft) W-NW 0,00 h 0,0 mm 0,0 UV-I 0 W/m 11,3 C 15,4 km/h (3 Bft)
03.12.2018 02:00 12,7 C 95 % 1001,3 hPa 0,0 mm 9,7 km/h (2 Bft) NW 0,00 h 0,0 mm 0,0 UV-I 0 W/m 11,8 C 21,5 km/h (4 Bft)
03.12.2018 03:00 12,8 C 94 % 1000,9 hPa 0,0 mm 6,3 km/h (2 Bft) W 0,00 h 0,0 mm 0,0 UV-I 0 W/m 11,8 C 17,9 km/h (3 Bft)
03.12.2018 04:00 13,0 C 91 % 1000,6 hPa 0,2 mm 9,5 km/h (2 Bft) W 0,00 h 0,0 mm 0,0 UV-I 0 W/m 11,5 C 22,8 km/h (4 Bft)
03.12.2018 05:00 12,8 C 89 % 1001,0 hPa 0,0 mm 10,2 km/h (2 Bft) N-NW 0,00 h 0,0 mm 0,0 UV-I 0 W/m 11,0 C 22,9 km/h (4 Bft)
03.12.2018 06:00 12,8 C 89 % 1001,4 hPa 0,0 mm 12,9 km/h (3 Bft) N-NW 0,00 h 0,0 mm 0,0 UV-I 0 W/m 11,0 C 28,7 km/h (4 Bft)
03.12.2018 07:00 12,7 C 89 % 1001,5 hPa 0,0 mm 10,4 km/h (2 Bft) NW 0,00 h 0,0 mm 0,0 UV-I 0 W/m 10,9 C 24,6 km/h (4 Bft)
03.12.2018 08:00 12,8 C 87 % 1001,8 hPa 0,0 mm 11,1 km/h (2 Bft) NW 0,08 h 0,0 mm 0,0 UV-I 16 W/m 10,7 C 27,0 km/h (4 Bft)
03.12.2018 09:00 12,7 C 86 % 1002,0 hPa 0,0 mm 9,0 km/h (2 Bft) N-NW 0,25 h 0,0 mm 0,2 UV-I 58 W/m 10,5 C 21,3 km/h (4 Bft)
03.12.2018 10:00 13,1 C 84 % 1002,2 hPa 0,0 mm 10,3 km/h (2 Bft) N-NW 0,17 h 0,1 mm 0,2 UV-I 41 W/m 10,4 C 23,7 km/h (4 Bft)
03.12.2018 11:00 13,0 C 85 % 1002,1 hPa 0,0 mm 10,2 km/h (2 Bft) N 0,17 h 0,0 mm 0,3 UV-I 108 W/m 10,5 C 24,6 km/h (4 Bft)
03.12.2018 12:00 13,8 C 82 % 1001,5 hPa 0,0 mm 11,0 km/h (2 Bft) N-NW 0,75 h 0,1 mm 0,4 UV-I 224 W/m 10,8 C 23,3 km/h (4 Bft)
03.12.2018 13:00 13,9 C 81 % 1000,9 hPa 0,0 mm 8,3 km/h (2 Bft) W-NW 0,00 h 0,1 mm 0,2 UV-I 57 W/m 10,7 C 19,8 km/h (4 Bft)
03.12.2018 14:00 13,5 C 84 % 1000,2 hPa 0,0 mm 6,8 km/h (2 Bft) W 0,00 h 0,1 mm 0,2 UV-I 49 W/m 10,8 C 15,3 km/h (3 Bft)
03.12.2018 15:00 13,4 C 84 % 999,9 hPa 0,0 mm 7,9 km/h (2 Bft) N-NW 0,08 h 0,0 mm 0,2 UV-I 50 W/m 10,7 C 18,3 km/h (3 Bft)
03.12.2018 16:00 13,0 C 86 % 1000,0 hPa 0,6 mm 7,7 km/h (2 Bft) NW 0,00 h 0,0 mm 0,0 UV-I 9 W/m 10,6 C 20,5 km/h (4 Bft)
03.12.2018 17:00 12,3 C 89 % 1000,1 hPa 0,2 mm 6,4 km/h (2 Bft) N-NW 0,00 h 0,0 mm 0,0 UV-I 0 W/m 10,5 C 19,4 km/h (3 Bft)
03.12.2018 18:00 12,3 C 86 % 1000,3 hPa 0,0 mm 8,6 km/h (2 Bft) NW 0,00 h 0,0 mm 0,0 UV-I 0 W/m 10,1 C 20,9 km/h (4 Bft)
03.12.2018 19:00 12,4 C 85 % 1000,5 hPa 0,0 mm 11,6 km/h (2 Bft) N-NW 0,00 h 0,0 mm 0,0 UV-I 0 W/m 9,9 C 26,3 km/h (4 Bft)
03.12.2018 20:00 12,5 C 84 % 1001,2 hPa 0,0 mm 14,2 km/h (3 Bft) N-NW 0,00 h 0,0 mm 0,0 UV-I 0 W/m 9,8 C 31,1 km/h (5 Bft)
03.12.2018 21:00 12,3 C 84 % 1002,0 hPa 0,0 mm 15,6 km/h (3 Bft) W-NW 0,00 h 0,0 mm 0,0 UV-I 0 W/m 9,6 C 33,0 km/h (5 Bft)
03.12.2018 22:00 11,9 C 85 % 1003,0 hPa 0,0 mm 16,4 km/h (3 Bft) N 0,00 h 0,0 mm 0,0 UV-I 0 W/m 9,5 C 35,0 km/h (5 Bft)
03.12.2018 23:00 11,9 C 86 % 1003,9 hPa 0,2 mm 19,2 km/h (3 Bft) NW 0,00 h 0,0 mm 0,0 UV-I 0 W/m 9,5 C 41,3 km/h (6 Bft)
04.12.2018 00:00 11,0 C 90 % 1005,5 hPa 0,0 mm 17,0 km/h (3 Bft) N 0,00 h 0,0 mm 0,0 UV-I 0 W/m 9,3 C 40,4 km/h (6 Bft)
04.12.2018 01:00 9,6 C 90 % 1007,7 hPa 0,0 mm 3,8 km/h (1 Bft) N 0,00 h 0,0 mm 0,0 UV-I 0 W/m 8,0 C 15,2 km/h (3 Bft)
04.12.2018 02:00 8,4 C 89 % 1009,6 hPa 0,0 mm 1,0 km/h (0 Bft) N-NO 0,00 h 0,0 mm 0,0 UV-I 0 W/m 6,7 C 6,7 km/h (2 Bft)
04.12.2018 03:00 8,0 C 90 % 1010,9 hPa 0,2 mm 1,3 km/h (1 Bft) N 0,00 h 0,0 mm 0,0 UV-I 0 W/m 6,4 C 6,7 km/h (2 Bft)
04.12.2018 04:00 8,0 C 91 % 1012,0 hPa 0,0 mm 1,7 km/h (1 Bft) N-NW 0,00 h 0,0 mm 0,0 UV-I 0 W/m 6,6 C 10,6 km/h (2 Bft)
04.12.2018 05:00 7,7 C 91 % 1013,0 hPa 0,0 mm 2,3 km/h (1 Bft) NW 0,00 h 0,0 mm 0,0 UV-I 0 W/m 6,3 C 10,4 km/h (2 Bft)
04.12.2018 06:00 7,4 C 88 % 1014,1 hPa 0,0 mm 0,3 km/h (0 Bft) N 0,00 h 0,0 mm 0,0 UV-I 0 W/m 5,6 C 3,3 km/h (1 Bft)
04.12.2018 07:00 7,1 C 88 % 1015,6 hPa 0,0 mm 0,5 km/h (0 Bft) N-NO 0,00 h 0,0 mm 0,0 UV-I 0 W/m 5,4 C 4,2 km/h (1 Bft)
04.12.2018 08:00 6,9 C 91 % 1016,9 hPa 0,2 mm 0,6 km/h (0 Bft) N 0,00 h 0,0 mm 0,0 UV-I 11 W/m 5,5 C 5,4 km/h (1 Bft)
04.12.2018 09:00 6,7 C 90 % 1018,2 hPa 0,0 mm 2,7 km/h (1 Bft) NW 0,00 h 0,0 mm 0,1 UV-I 29 W/m 5,1 C 8,1 km/h (2 Bft)
04.12.2018 10:00 6,9 C 89 % 1019,5 hPa 0,0 mm 2,6 km/h (1 Bft) N 0,08 h 0,0 mm 0,1 UV-I 63 W/m 5,2 C 8,9 km/h (2 Bft)
04.12.2018 11:00 7,2 C 89 % 1020,4 hPa 0,0 mm 1,6 km/h (1 Bft) N-NW 0,17 h 0,0 mm 0,2 UV-I 70 W/m 5,5 C 7,2 km/h (2 Bft)
04.12.2018 12:00 7,0 C 89 % 1021,1 hPa 0,0 mm 0,4 km/h (0 Bft) N-NW 0,00 h 0,0 mm 0,0 UV-I 31 W/m 5,3 C 3,3 km/h (1 Bft)
04.12.2018 13:00 6,6 C 89 % 1021,6 hPa 0,0 mm 1,5 km/h (1 Bft) N-NW 0,08 h 0,0 mm 0,0 UV-I 45 W/m 5,0 C 4,5 km/h (1 Bft)
04.12.2018 14:00 6,4 C 89 % 1022,2 hPa 0,0 mm 0,0 km/h (0 Bft) N 0,00 h 0,0 mm 0,1 UV-I 27 W/m 4,6 C 0,4 km/h (0 Bft)
04.12.2018 15:00 6,0 C 88 % 1023,0 hPa 0,0 mm 0,5 km/h (0 Bft) N-NW 0,00 h 0,0 mm 0,0 UV-I 22 W/m 4,2 C 1,8 km/h (1 Bft)
04.12.2018 16:00 5,5 C 89 % 1023,7 hPa 0,0 mm 0,4 km/h (0 Bft) N-NW 0,00 h 0,0 mm 0,0 UV-I 7 W/m 3,8 C 1,6 km/h (1 Bft)
04.12.2018 17:00 4,4 C 89 % 1024,4 hPa 0,0 mm 0,0 km/h (0 Bft) N 0,00 h 0,0 mm 0,0 UV-I 0 W/m 2,8 C 0,0 km/h (0 Bft)
04.12.2018 18:00 4,1 C 92 % 1024,8 hPa 0,0 mm 0,1 km/h (0 Bft) N 0,00 h 0,0 mm 0,0 UV-I 0 W/m 2,9 C 1,5 km/h (1 Bft)
04.12.2018 19:00 3,9 C 93 % 1025,3 hPa 0,0 mm 0,0 km/h (0 Bft) N 0,00 h 0,0 mm 0,0 UV-I 0 W/m 2,8 C 0,6 km/h (0 Bft)
04.12.2018 20:00 3,7 C 94 % 1025,7 hPa 0,0 mm 0,3 km/h (0 Bft) S-SW 0,00 h 0,0 mm 0,0 UV-I 0 W/m 2,8 C 1,8 km/h (1 Bft)
04.12.2018 21:00 3,7 C 94 % 1026,2 hPa 0,0 mm 0,5 km/h (0 Bft) SW 0,00 h 0,0 mm 0,0 UV-I 0 W/m 2,9 C 1,5 km/h (1 Bft)
04.12.2018 22:00 3,3 C 94 % 1026,6 hPa 0,0 mm 0,4 km/h (0 Bft) S-SW 0,00 h 0,0 mm 0,0 UV-I 0 W/m 2,4 C 1,8 km/h (1 Bft)
04.12.2018 23:00 2,9 C 95 % 1026,8 hPa 0,0 mm 0,9 km/h (0 Bft) S-SW 0,00 h 0,0 mm 0,0 UV-I 0 W/m 2,2 C 4,4 km/h (1 Bft)
05.12.2018 00:00 3,1 C 95 % 1026,8 hPa 0,0 mm 2,1 km/h (1 Bft) S 0,00 h 0,0 mm 0,0 UV-I 0 W/m 2,4 C 7,6 km/h (2 Bft)
05.12.2018 01:00 2,8 C 95 % 1026,6 hPa 0,0 mm 2,9 km/h (1 Bft) S-SW 0,00 h 0,0 mm 0,0 UV-I 0 W/m 2,2 C 9,6 km/h (2 Bft)
05.12.2018 02:00 2,4 C 96 % 1026,4 hPa 0,0 mm 4,0 km/h (1 Bft) S-SW 0,00 h 0,0 mm 0,0 UV-I 0 W/m 1,8 C 11,7 km/h (2 Bft)
05.12.2018 03:00 2,4 C 97 % 1026,2 hPa 0,0 mm 4,5 km/h (1 Bft) S 0,00 h 0,0 mm 0,0 UV-I 0 W/m 1,9 C 12,4 km/h (3 Bft)
05.12.2018 04:00 2,4 C 97 % 1026,0 hPa 0,0 mm 4,9 km/h (1 Bft) S 0,00 h 0,0 mm 0,0 UV-I 0 W/m 2,0 C 12,9 km/h (3 Bft)
05.12.2018 05:00 2,4 C 97 % 1025,9 hPa 0,0 mm 4,3 km/h (1 Bft) S-SW 0,00 h 0,0 mm 0,0 UV-I 0 W/m 1,9 C 13,3 km/h (3 Bft)
05.12.2018 06:00 2,2 C 97 % 1025,8 hPa 0,0 mm 6,2 km/h (2 Bft) S 0,00 h 0,0 mm 0,0 UV-I 0 W/m 1,8 C 15,5 km/h (3 Bft)
05.12.2018 07:00 2,2 C 97 % 1025,5 hPa 0,0 mm 4,6 km/h (1 Bft) S-SW 0,00 h 0,0 mm 0,0 UV-I 0 W/m 1,8 C 12,9 km/h (3 Bft)
05.12.2018 08:00 2,3 C 97 % 1025,7 hPa 0,0 mm 5,3 km/h (1 Bft) S 0,00 h 0,0 mm 0,0 UV-I 10 W/m 1,9 C 13,1 km/h (3 Bft)
05.12.2018 09:00 2,8 C 97 % 1025,1 hPa 0,0 mm 4,5 km/h (1 Bft) S 0,00 h 0,0 mm 0,0 UV-I 29 W/m 2,4 C 13,7 km/h (3 Bft)
05.12.2018 10:00 3,6 C 96 % 1024,7 hPa 0,0 mm 7,7 km/h (2 Bft) S 0,00 h 0,0 mm 0,2 UV-I 59 W/m 3,1 C 17,4 km/h (3 Bft)
05.12.2018 11:00 4,5 C 94 % 1024,1 hPa 0,0 mm 8,0 km/h (2 Bft) S 0,00 h 0,0 mm 0,2 UV-I 71 W/m 3,6 C 19,3 km/h (3 Bft)
05.12.2018 12:00 5,4 C 92 % 1023,2 hPa 0,0 mm 7,9 km/h (2 Bft) S 0,00 h 0,0 mm 0,2 UV-I 90 W/m 4,2 C 17,4 km/h (3 Bft)
05.12.2018 13:00 6,6 C 89 % 1022,3 hPa 0,0 mm 9,5 km/h (2 Bft) S 0,58 h 0,1 mm 0,2 UV-I 197 W/m 4,9 C 23,1 km/h (4 Bft)
05.12.2018 14:00 8,2 C 84 % 1021,4 hPa 0,0 mm 8,7 km/h (2 Bft) S 0,50 h 0,1 mm 0,3 UV-I 121 W/m 5,6 C 20,5 km/h (4 Bft)
05.12.2018 15:00 7,7 C 84 % 1020,7 hPa 0,0 mm 10,0 km/h (2 Bft) S 0,00 h 0,1 mm 0,0 UV-I 22 W/m 5,2 C 23,1 km/h (4 Bft)
05.12.2018 16:00 7,0 C 88 % 1019,7 hPa 0,0 mm 8,8 km/h (2 Bft) S 0,00 h 0,0 mm 0,0 UV-I 5 W/m 5,1 C 22,6 km/h (4 Bft)
05.12.2018 17:00 6,7 C 89 % 1018,7 hPa 0,0 mm 10,8 km/h (2 Bft) S 0,00 h 0,0 mm 0,0 UV-I 0 W/m 5,0 C 25,7 km/h (4 Bft)
05.12.2018 18:00 6,7 C 89 % 1018,2 hPa 0,0 mm 10,7 km/h (2 Bft) S 0,00 h 0,0 mm 0,0 UV-I 0 W/m 5,0 C 27,0 km/h (4 Bft)
05.12.2018 19:00 6,8 C 89 % 1017,2 hPa 0,0 mm 11,0 km/h (2 Bft) S-SO 0,00 h 0,0 mm 0,0 UV-I 0 W/m 5,2 C 26,3 km/h (4 Bft)
05.12.2018 20:00 7,1 C 88 % 1016,5 hPa 0,0 mm 10,0 km/h (2 Bft) S-SO 0,00 h 0,0 mm 0,0 UV-I 0 W/m 5,3 C 26,1 km/h (4 Bft)
05.12.2018 21:00 7,2 C 88 % 1016,1 hPa 0,0 mm 8,9 km/h (2 Bft) S 0,00 h 0,0 mm 0,0 UV-I 0 W/m 5,3 C 21,1 km/h (4 Bft)
05.12.2018 22:00 7,0 C 89 % 1015,7 hPa 0,0 mm 9,5 km/h (2 Bft) S 0,00 h 0,0 mm 0,0 UV-I 0 W/m 5,3 C 22,8 km/h (4 Bft)
05.12.2018 23:00 6,9 C 91 % 1015,1 hPa 0,0 mm 8,8 km/h (2 Bft) S 0,00 h 0,0 mm 0,0 UV-I 0 W/m 5,5 C 19,4 km/h (3 Bft)
06.12.2018 00:00 6,8 C 94 % 1014,7 hPa 0,0 mm 8,2 km/h (2 Bft) S 0,00 h 0,0 mm 0,0 UV-I 0 W/m 5,9 C 19,6 km/h (3 Bft)
06.12.2018 01:00 6,9 C 95 % 1014,5 hPa 0,0 mm 6,3 km/h (2 Bft) S-SW 0,00 h 0,0 mm 0,0 UV-I 0 W/m 6,0 C 17,2 km/h (3 Bft)
06.12.2018 02:00 7,0 C 95 % 1014,3 hPa 0,0 mm 6,8 km/h (2 Bft) S 0,00 h 0,0 mm 0,0 UV-I 0 W/m 6,3 C 16,6 km/h (3 Bft)
06.12.2018 03:00 7,1 C 95 % 1014,1 hPa 0,0 mm 5,8 km/h (2 Bft) S 0,00 h 0,0 mm 0,0 UV-I 0 W/m 6,4 C 14,6 km/h (3 Bft)
06.12.2018 04:00 7,2 C 96 % 1013,9 hPa 0,0 mm 2,8 km/h (1 Bft) S-SW 0,00 h 0,0 mm 0,0 UV-I 0 W/m 6,6 C 8,9 km/h (2 Bft)
06.12.2018 05:00 7,5 C 96 % 1014,1 hPa 0,0 mm 2,2 km/h (1 Bft) S 0,00 h 0,0 mm 0,0 UV-I 0 W/m 6,9 C 9,8 km/h (2 Bft)
06.12.2018 06:00 7,9 C 96 % 1014,6 hPa 0,0 mm 3,0 km/h (1 Bft) S 0,00 h 0,0 mm 0,0 UV-I 0 W/m 7,3 C 9,6 km/h (2 Bft)
06.12.2018 07:00 8,2 C 97 % 1015,1 hPa 0,4 mm 2,5 km/h (1 Bft) S-SW 0,00 h 0,0 mm 0,0 UV-I 0 W/m 7,7 C 8,5 km/h (2 Bft)
06.12.2018 08:00 8,6 C 97 % 1016,0 hPa 0,0 mm 2,6 km/h (1 Bft) S-SW 0,00 h 0,0 mm 0,0 UV-I 6 W/m 8,2 C 8,3 km/h (2 Bft)
06.12.2018 09:00 9,5 C 98 % 1016,4 hPa 0,0 mm 2,0 km/h (1 Bft) SW 0,00 h 0,0 mm 0,0 UV-I 16 W/m 9,2 C 7,6 km/h (2 Bft)
06.12.2018 10:00 10,8 C 98 % 1016,5 hPa 0,0 mm 4,1 km/h (1 Bft) W 0,00 h 0,0 mm 0,4 UV-I 79 W/m 10,4 C 10,7 km/h (2 Bft)
06.12.2018 11:00 11,5 C 95 % 1017,0 hPa 0,0 mm 7,4 km/h (2 Bft) W-NW 0,00 h 0,0 mm 0,4 UV-I 101 W/m 10,7 C 17,8 km/h (3 Bft)
06.12.2018 12:00 12,1 C 89 % 1016,9 hPa 0,0 mm 8,5 km/h (2 Bft) NW 0,00 h 0,1 mm 0,3 UV-I 63 W/m 10,3 C 20,2 km/h (4 Bft)
06.12.2018 13:00 12,4 C 86 % 1017,1 hPa 0,0 mm 8,7 km/h (2 Bft) N-NW 0,00 h 0,1 mm 0,2 UV-I 39 W/m 10,2 C 19,3 km/h (3 Bft)
06.12.2018 14:00 12,6 C 85 % 1016,9 hPa 0,0 mm 6,6 km/h (2 Bft) W-NW 0,00 h 0,0 mm 0,3 UV-I 64 W/m 10,3 C 17,9 km/h (3 Bft)
06.12.2018 15:00 12,5 C 83 % 1016,9 hPa 0,0 mm 5,7 km/h (1 Bft) W 0,00 h 0,1 mm 0,0 UV-I 29 W/m 9,7 C 14,6 km/h (3 Bft)
06.12.2018 16:00 12,3 C 83 % 1017,0 hPa 0,0 mm 3,1 km/h (1 Bft) W-SW 0,00 h 0,0 mm 0,0 UV-I 5 W/m 9,4 C 10,0 km/h (2 Bft)
06.12.2018 17:00 12,3 C 83 % 1016,8 hPa 0,0 mm 3,7 km/h (1 Bft) W 0,00 h 0,0 mm 0,0 UV-I 0 W/m 9,4 C 12,0 km/h (2 Bft)
06.12.2018 18:00 12,5 C 84 % 1016,8 hPa 0,0 mm 5,5 km/h (1 Bft) W-NW 0,00 h 0,0 mm 0,0 UV-I 0 W/m 9,9 C 13,5 km/h (3 Bft)
06.12.2018 19:00 12,6 C 86 % 1016,7 hPa 0,0 mm 7,3 km/h (2 Bft) W 0,00 h 0,0 mm 0,0 UV-I 0 W/m 10,3 C 19,8 km/h (3 Bft)
06.12.2018 20:00 12,7 C 86 % 1016,6 hPa 0,0 mm 9,5 km/h (2 Bft) NW 0,00 h 0,0 mm 0,0 UV-I 0 W/m 10,4 C 23,1 km/h (4 Bft)
06.12.2018 21:00 12,7 C 87 % 1016,6 hPa 0,0 mm 8,5 km/h (2 Bft) N-NW 0,00 h 0,0 mm 0,0 UV-I 0 W/m 10,5 C 22,0 km/h (4 Bft)
06.12.2018 22:00 12,8 C 86 % 1016,3 hPa 0,0 mm 12,5 km/h (3 Bft) NW 0,00 h 0,0 mm 0,0 UV-I 0 W/m 10,6 C 29,3 km/h (5 Bft)
06.12.2018 23:00 12,8 C 85 % 1016,1 hPa 0,0 mm 13,6 km/h (3 Bft) W-NW 0,00 h 0,0 mm 0,0 UV-I 0 W/m 10,4 C 31,1 km/h (5 Bft)
07.12.2018 00:00 12,7 C 82 % 1015,9 hPa 0,0 mm 12,8 km/h (3 Bft) NW 0,00 h 0,0 mm 0,0 UV-I 0 W/m 9,8 C 27,8 km/h (4 Bft)
07.12.2018 01:00 12,3 C 85 % 1015,1 hPa 0,0 mm 7,1 km/h (2 Bft) N 0,00 h 0,0 mm 0,0 UV-I 0 W/m 9,8 C 17,6 km/h (3 Bft)
07.12.2018 02:00 12,2 C 86 % 1014,4 hPa 0,4 mm 7,9 km/h (2 Bft) NW 0,00 h 0,0 mm 0,0 UV-I 0 W/m 9,9 C 20,0 km/h (4 Bft)
07.12.2018 03:00 11,8 C 88 % 1013,8 hPa 0,2 mm 6,6 km/h (2 Bft) N-NW 0,00 h 0,0 mm 0,0 UV-I 0 W/m 9,9 C 17,4 km/h (3 Bft)
07.12.2018 04:00 12,0 C 87 % 1013,2 hPa 0,0 mm 5,8 km/h (2 Bft) W 0,00 h 0,0 mm 0,0 UV-I 0 W/m 9,9 C 15,9 km/h (3 Bft)
07.12.2018 05:00 11,7 C 89 % 1012,3 hPa 0,8 mm 3,5 km/h (1 Bft) SW 0,00 h 0,0 mm 0,0 UV-I 0 W/m 9,9 C 11,8 km/h (2 Bft)
07.12.2018 06:00 11,0 C 94 % 1011,8 hPa 0,6 mm 2,6 km/h (1 Bft) S 0,00 h 0,0 mm 0,0 UV-I 0 W/m 10,0 C 9,1 km/h (2 Bft)
07.12.2018 07:00 10,6 C 95 % 1010,9 hPa 0,0 mm 2,0 km/h (1 Bft) S 0,00 h 0,0 mm 0,0 UV-I 0 W/m 9,9 C 8,7 km/h (2 Bft)
07.12.2018 08:00 10,5 C 96 % 1010,3 hPa 0,2 mm 1,2 km/h (1 Bft) S 0,00 h 0,0 mm 0,0 UV-I 5 W/m 9,9 C 5,9 km/h (2 Bft)
07.12.2018 09:00 10,8 C 95 % 1009,7 hPa 0,0 mm 2,0 km/h (1 Bft) SW 0,00 h 0,0 mm 0,0 UV-I 14 W/m 10,0 C 8,1 km/h (2 Bft)
07.12.2018 10:00 11,3 C 91 % 1008,9 hPa 0,0 mm 4,7 km/h (1 Bft) SW 0,00 h 0,0 mm 0,0 UV-I 21 W/m 9,9 C 12,0 km/h (2 Bft)
07.12.2018 11:00 11,8 C 87 % 1007,7 hPa 0,0 mm 7,0 km/h (2 Bft) S-SW 0,00 h 0,0 mm 0,2 UV-I 40 W/m 9,6 C 18,7 km/h (3 Bft)
07.12.2018 12:00 12,2 C 84 % 1006,2 hPa 0,0 mm 6,4 km/h (2 Bft) SW 0,00 h 0,0 mm 0,2 UV-I 49 W/m 9,6 C 15,3 km/h (3 Bft)
07.12.2018 13:00 12,6 C 81 % 1004,1 hPa 0,0 mm 10,0 km/h (2 Bft) W-SW 0,00 h 0,0 mm 0,2 UV-I 69 W/m 9,4 C 23,3 km/h (4 Bft)
07.12.2018 14:00 13,1 C 77 % 1002,7 hPa 0,0 mm 11,9 km/h (2 Bft) SW 0,25 h 0,1 mm 0,4 UV-I 78 W/m 9,2 C 28,1 km/h (4 Bft)
07.12.2018 15:00 12,6 C 76 % 1001,6 hPa 0,0 mm 11,7 km/h (2 Bft) SW 0,00 h 0,1 mm 0,0 UV-I 12 W/m 8,4 C 31,8 km/h (5 Bft)
07.12.2018 16:00 11,8 C 80 % 1000,4 hPa 1,0 mm 11,2 km/h (2 Bft) S-SW 0,00 h 0,0 mm 0,0 UV-I 0 W/m 8,6 C 26,3 km/h (4 Bft)
07.12.2018 17:00 10,6 C 88 % 999,2 hPa 1,2 mm 9,6 km/h (2 Bft) S-SW 0,00 h 0,0 mm 0,0 UV-I 0 W/m 8,7 C 21,5 km/h (4 Bft)
07.12.2018 18:00 10,1 C 89 % 998,9 hPa 2,2 mm 13,8 km/h (3 Bft) W-NW 0,00 h 0,0 mm 0,0 UV-I 0 W/m 8,3 C 30,2 km/h (5 Bft)
07.12.2018 19:00 8,6 C 91 % 1000,5 hPa 2,0 mm 18,9 km/h (3 Bft) NW 0,00 h 0,0 mm 0,0 UV-I 0 W/m 7,2 C 42,2 km/h (6 Bft)
07.12.2018 20:00 7,1 C 90 % 1002,8 hPa 0,2 mm 12,8 km/h (3 Bft) N-NW 0,00 h 0,0 mm 0,0 UV-I 0 W/m 5,6 C 29,8 km/h (5 Bft)
07.12.2018 21:00 7,2 C 90 % 1004,1 hPa 0,2 mm 13,5 km/h (3 Bft) N-NW 0,00 h 0,0 mm 0,0 UV-I 0 W/m 5,7 C 28,7 km/h (4 Bft)
07.12.2018 22:00 7,1 C 87 % 1005,3 hPa 0,2 mm 15,3 km/h (3 Bft) NW 0,00 h 0,0 mm 0,0 UV-I 0 W/m 5,1 C 35,2 km/h (5 Bft)
07.12.2018 23:00 6,3 C 89 % 1006,1 hPa 0,2 mm 13,7 km/h (3 Bft) N-NW 0,00 h 0,0 mm 0,0 UV-I 0 W/m 4,6 C 28,9 km/h (5 Bft)
08.12.2018 00:00 6,8 C 84 % 1006,2 hPa 0,0 mm 15,6 km/h (3 Bft) W-NW 0,00 h 0,0 mm 0,0 UV-I 0 W/m 4,3 C 35,7 km/h (5 Bft)
08.12.2018 01:00 7,2 C 82 % 1006,2 hPa 0,0 mm 17,0 km/h (3 Bft) N-NW 0,00 h 0,0 mm 0,0 UV-I 0 W/m 4,3 C 37,2 km/h (5 Bft)
08.12.2018 02:00 6,9 C 83 % 1006,6 hPa 0,0 mm 16,1 km/h (3 Bft) W-NW 0,00 h 0,0 mm 0,0 UV-I 0 W/m 4,2 C 37,4 km/h (5 Bft)
08.12.2018 03:00 7,1 C 81 % 1006,5 hPa 0,0 mm 14,4 km/h (3 Bft) N-NW 0,00 h 0,0 mm 0,0 UV-I 0 W/m 4,1 C 32,6 km/h (5 Bft)
08.12.2018 04:00 7,2 C 82 % 1006,1 hPa 0,0 mm 11,6 km/h (2 Bft) NW 0,00 h 0,0 mm 0,0 UV-I 0 W/m 4,2 C 28,9 km/h (5 Bft)
08.12.2018 05:00 7,6 C 81 % 1005,8 hPa 0,2 mm 14,9 km/h (3 Bft) W 0,00 h 0,0 mm 0,0 UV-I 0 W/m 4,6 C 31,6 km/h (5 Bft)
08.12.2018 06:00 7,6 C 83 % 1005,5 hPa 0,0 mm 14,8 km/h (3 Bft) NW 0,00 h 0,0 mm 0,0 UV-I 0 W/m 4,8 C 37,0 km/h (5 Bft)
08.12.2018 07:00 7,6 C 82 % 1005,5 hPa 0,0 mm 15,1 km/h (3 Bft) W-NW 0,00 h 0,0 mm 0,0 UV-I 0 W/m 4,7 C 37,4 km/h (5 Bft)
08.12.2018 08:00 7,4 C 84 % 1005,0 hPa 0,0 mm 14,9 km/h (3 Bft) N-NW 0,00 h 0,0 mm 0,0 UV-I 10 W/m 4,9 C 37,2 km/h (5 Bft)
08.12.2018 09:00 7,6 C 85 % 1004,7 hPa 0,0 mm 17,9 km/h (3 Bft) N 0,00 h 0,0 mm 0,2 UV-I 38 W/m 5,2 C 40,5 km/h (6 Bft)
08.12.2018 10:00 8,2 C 84 % 1004,5 hPa 0,0 mm 18,3 km/h (3 Bft) NW 0,00 h 0,0 mm 0,2 UV-I 46 W/m 5,6 C 40,5 km/h (6 Bft)
08.12.2018 11:00 8,6 C 84 % 1004,6 hPa 0,0 mm 17,9 km/h (3 Bft) NW 0,00 h 0,1 mm 0,0 UV-I 32 W/m 5,9 C 38,3 km/h (5 Bft)
08.12.2018 12:00 9,5 C 79 % 1004,5 hPa 0,2 mm 21,2 km/h (4 Bft) N 0,00 h 0,0 mm 0,2 UV-I 59 W/m 6,0 C 45,3 km/h (6 Bft)
08.12.2018 13:00 9,3 C 81 % 1004,6 hPa 0,0 mm 17,5 km/h (3 Bft) NW 0,00 h 0,1 mm 0,0 UV-I 33 W/m 6,2 C 37,6 km/h (5 Bft)
08.12.2018 14:00 9,3 C 83 % 1004,5 hPa 0,2 mm 15,0 km/h (3 Bft) W-NW 0,00 h 0,1 mm 0,1 UV-I 38 W/m 6,5 C 32,8 km/h (5 Bft)
08.12.2018 15:00 9,9 C 79 % 1004,1 hPa 0,0 mm 14,1 km/h (3 Bft) NW 0,00 h 0,0 mm 0,0 UV-I 22 W/m 6,3 C 33,9 km/h (5 Bft)
08.12.2018 16:00 10,0 C 78 % 1003,7 hPa 0,0 mm 15,7 km/h (3 Bft) W-NW 0,08 h 0,0 mm 0,0 UV-I 10 W/m 6,3 C 35,7 km/h (5 Bft)
08.12.2018 17:00 10,2 C 78 % 1003,0 hPa 0,0 mm 15,0 km/h (3 Bft) NW 0,00 h 0,0 mm 0,0 UV-I 0 W/m 6,6 C 33,1 km/h (5 Bft)
08.12.2018 18:00 9,7 C 84 % 1002,0 hPa 0,0 mm 13,8 km/h (3 Bft) W-SW 0,00 h 0,0 mm 0,0 UV-I 0 W/m 7,2 C 30,9 km/h (5 Bft)
08.12.2018 19:00 9,6 C 86 % 1000,4 hPa 0,4 mm 12,1 km/h (2 Bft) W-SW 0,00 h 0,0 mm 0,0 UV-I 0 W/m 7,4 C 33,1 km/h (5 Bft)
08.12.2018 20:00 9,5 C 90 % 998,5 hPa 1,0 mm 13,0 km/h (3 Bft) W-SW 0,00 h 0,0 mm 0,0 UV-I 0 W/m 7,9 C 30,9 km/h (5 Bft)
08.12.2018 21:00 9,8 C 90 % 996,6 hPa 2,2 mm 14,7 km/h (3 Bft) NW 0,00 h 0,0 mm 0,0 UV-I 0 W/m 8,3 C 36,5 km/h (5 Bft)
08.12.2018 22:00 10,5 C 86 % 995,6 hPa 0,0 mm 22,4 km/h (4 Bft) W-NW 0,00 h 0,0 mm 0,0 UV-I 0 W/m 8,3 C 47,6 km/h (6 Bft)
08.12.2018 23:00 10,7 C 82 % 995,3 hPa 0,0 mm 20,6 km/h (4 Bft) N-NW 0,00 h 0,0 mm 0,0 UV-I 0 W/m 7,7 C 42,4 km/h (6 Bft)
09.12.2018 00:00 9,8 C 85 % 995,2 hPa 4,0 mm 24,6 km/h (4 Bft) N-NW 0,00 h 0,0 mm 0,0 UV-I 0 W/m 7,4 C 51,3 km/h (7 Bft)
09.12.2018 01:00 8,1 C 92 % 995,1 hPa 0,4 mm 21,6 km/h (4 Bft) W-NW 0,00 h 0,0 mm 0,0 UV-I 0 W/m 6,8 C 44,2 km/h (6 Bft)
09.12.2018 02:00 9,2 C 84 % 995,3 hPa 0,0 mm 26,6 km/h (4 Bft) N-NW 0,00 h 0,0 mm 0,0 UV-I 0 W/m 6,6 C 52,8 km/h (7 Bft)
09.12.2018 03:00 9,3 C 80 % 995,9 hPa 0,0 mm 23,1 km/h (4 Bft) NW 0,00 h 0,0 mm 0,0 UV-I 0 W/m 6,1 C 47,2 km/h (6 Bft)
09.12.2018 04:00 8,4 C 86 % 996,3 hPa 3,0 mm 19,8 km/h (4 Bft) NW 0,00 h 0,0 mm 0,0 UV-I 0 W/m 6,1 C 47,9 km/h (6 Bft)
09.12.2018 05:00 7,0 C 94 % 996,4 hPa 2,0 mm 10,0 km/h (2 Bft) NW 0,00 h 0,0 mm 0,0 UV-I 0 W/m 6,1 C 28,3 km/h (4 Bft)
09.12.2018 06:00 7,4 C 94 % 996,8 hPa 2,4 mm 16,0 km/h (3 Bft) NW 0,00 h 0,0 mm 0,0 UV-I 0 W/m 6,5 C 37,6 km/h (5 Bft)
09.12.2018 07:00 7,5 C 94 % 997,5 hPa 1,0 mm 15,1 km/h (3 Bft) NW 0,00 h 0,0 mm 0,0 UV-I 0 W/m 6,5 C 31,7 km/h (5 Bft)
09.12.2018 08:00 8,4 C 85 % 998,0 hPa 0,0 mm 20,9 km/h (4 Bft) NW 0,00 h 0,0 mm 0,0 UV-I 5 W/m 6,0 C 44,2 km/h (6 Bft)
09.12.2018 09:00 8,9 C 81 % 998,9 hPa 0,0 mm 20,3 km/h (4 Bft) NW 0,00 h 0,0 mm 0,0 UV-I 21 W/m 5,8 C 42,8 km/h (6 Bft)
09.12.2018 10:00 8,9 C 82 % 999,5 hPa 0,0 mm 20,6 km/h (4 Bft) NW 0,00 h 0,1 mm 0,2 UV-I 53 W/m 6,0 C 42,6 km/h (6 Bft)
09.12.2018 11:00 8,7 C 86 % 999,9 hPa 0,0 mm 18,0 km/h (3 Bft) W-NW 0,08 h 0,1 mm 0,2 UV-I 68 W/m 6,5 C 37,4 km/h (5 Bft)
09.12.2018 12:00 8,4 C 84 % 1000,3 hPa 0,0 mm 21,6 km/h (4 Bft) NW 0,00 h 0,1 mm 0,2 UV-I 80 W/m 5,9 C 45,0 km/h (6 Bft)
09.12.2018 13:00 8,6 C 85 % 1000,8 hPa 0,0 mm 19,6 km/h (3 Bft) NW 0,42 h 0,1 mm 0,2 UV-I 132 W/m 6,3 C 39,0 km/h (6 Bft)
09.12.2018 14:00 7,3 C 92 % 1002,3 hPa 3,2 mm 3,4 km/h (1 Bft) N-NW 0,00 h 0,1 mm 0,1 UV-I 30 W/m 6,1 C 12,9 km/h (3 Bft)
09.12.2018 15:00 7,4 C 93 % 1003,8 hPa 0,0 mm 8,4 km/h (2 Bft) NW 0,00 h 0,0 mm 0,0 UV-I 27 W/m 6,4 C 28,0 km/h (4 Bft)
09.12.2018 16:00 7,8 C 90 % 1005,2 hPa 0,0 mm 10,5 km/h (2 Bft) W-NW 0,17 h 0,0 mm 0,0 UV-I 8 W/m 6,3 C 27,2 km/h (4 Bft)
09.12.2018 17:00 7,8 C 87 % 1006,8 hPa 0,0 mm 10,5 km/h (2 Bft) NW 0,00 h 0,0 mm 0,0 UV-I 0 W/m 5,8 C 35,0 km/h (5 Bft)
09.12.2018 18:00 7,7 C 86 % 1008,5 hPa 0,0 mm 8,6 km/h (2 Bft) NW 0,00 h 0,0 mm 0,0 UV-I 0 W/m 5,5 C 29,2 km/h (5 Bft)
09.12.2018 19:00 7,3 C 89 % 1010,2 hPa 0,4 mm 8,6 km/h (2 Bft) N-NW 0,00 h 0,0 mm 0,0 UV-I 0 W/m 5,6 C 30,9 km/h (5 Bft)
09.12.2018 20:00 6,9 C 89 % 1011,7 hPa 0,0 mm 6,8 km/h (2 Bft) N-NW 0,00 h 0,0 mm 0,0 UV-I 0 W/m 5,1 C 21,3 km/h (4 Bft)
09.12.2018 21:00 6,7 C 87 % 1012,7 hPa 0,0 mm 10,7 km/h (2 Bft) NW 0,00 h 0,0 mm 0,0 UV-I 0 W/m 4,7 C 30,2 km/h (5 Bft)
09.12.2018 22:00 6,5 C 90 % 1013,7 hPa 0,2 mm 8,8 km/h (2 Bft) NW 0,00 h 0,0 mm 0,0 UV-I 0 W/m 4,9 C 23,7 km/h (4 Bft)
09.12.2018 23:00 6,2 C 89 % 1014,7 hPa 0,0 mm 11,3 km/h (2 Bft) NW 0,00 h 0,0 mm 0,0 UV-I 0 W/m 4,6 C 28,0 km/h (4 Bft)
Min-Datum _ 05.12.18 07.12.18 09.12.18 - 04.12.18 - - - - - 05.12.18 04.12.18
_ Min-Zeit 07:40 15:10 00:15 - 05:05 - - - - - 02:25 08:40
Minimum _ 2,1 C 74 % 994,9 hPa - 0,0 km/h (0 Bft) - - - - - 1,6 C 0,0 km/h (0 Bft)
Max-Datum _ 03.12.18 06.12.18 04.12.18 09.12.18 09.12.18 - 03.12.18 03.12.18 03.12.18 05.12.18 03.12.18 09.12.18
_ Max-Zeit 12:50 09:15 23:15 00:30 01:00 - 08:55 13:05 12:25 13:45 00:15 00:20
Maximum _ 14,4 C 98 % 1026,9 hPa 4,0 mm 38,1 km/h
W-NW (5 Bft)
- 0,08 h 0,1 mm 0,4 UV-I 304 W/m 12,1 C 64,4 km/h
N-NW (8 Bft)
Durchschnitt _ 8,8 C 88 % 1010,2 hPa #35,2 mm 9,4 km/h (2 Bft) NW #3:55 h #2,768 mm 0,2 UV-I 47 W/m 7,0 C 22,6 km/h (4 Bft)



© 1998 - 2018 www.pulheimwetter.de